Terminal Aerodrome Forecast
Issued by NWS

Home | Current Version | Previous Version | Text Only | Print | Product List | Glossary On
Versions: 1 2 3 4 5 6 7 8 9 10 11 12 13 14 15 16 17 18 19 20
000
FTUS46 KLOX 192333
TAFOXR
TAF
KOXR 192333Z 2000/2024 27012KT P6SM FEW015
     FM200400 VRB03KT P6SM OVC012
     FM201400 12005KT P6SM OVC015
     FM201900 17007KT P6SM BKN020
     FM202200 23008KT P6SM SCT020=

USA.gov is the U.S. government's official web portal to all federal, state and local government web resources and services.